Airfield :







YOU CAN JOIN US ON...

 
LOGIN :

Register | Disclaimer

   EN    FR    IT 

 









Legend :    VFR   Marginal VFR   IFR   Intensive IFR   Very Intensive IFR
Visi :
Ceiling :
>= 8 km
>= 3000ft
5 to 8 km
1000 to 3000 ft
1500m to 5 km
500 to 1000 ft
800 to 1500m
200 to 500 ft
< 800m
< 200 ft
Symbols :   Thunderstorms  Fog  Heavy snow  Heavy precipitations  Wind > 20 kt






- Airport Elevation : 160 ft
- IATA code : YYG


CYYG - Charlottetown

CURRENT METAR :
  • 150900Z 27007KT 15SM FEW004 FEW020 FEW120 BKN250 15/15 A2998 RMK CU1SC1AC1CI4 CU TR SLP155 DENSITY ALT 200FT

EXPIRED METARs :
  • 150800Z 24006KT 15SM FEW004 FEW015 SCT250 15/15 A2997 RMK CU1SC1CI3 CU TR SC TR SLP152 DENSITY ALT 200FT
  • 150700Z 26005KT 15SM FEW030 15/15 A2997 RMK SC1 SLP150 DENSITY ALT 200FT

TAF TAF CYYG
Valid from the 15 at 06:00 until the 15 at 18:00 UTC


150540Z 1506/1518 28007KT P6SM FEW008 FEW040
TEMPO 1506/1510 BKN008
PROB30 1506/1510 1 1/2SM BR BKN005
FM151000 27009KT P6SM FEW005 FEW030
BECMG 1512/1514 29010KT FEW030 RMK NXT FCST BY 151200Z
CZQM FIR / North America



MET'MAP, your aeronautical weather chart ! - Copyright ORBIFLY December 2007 - Disclaimer

ORBIFLY MET'MAP TEAM :

Programming & Development : Alexandra Zaïnal
Original concept : Baudouin d'Aumeries
Technical & hardware support : Manuel Goepfert
Assistance : Marc-Olivier Méhu




SOURCES & CREDITS :

   NOAA